Time;durP1;ratioP1;P1;durP2;ratioP2;P2;SDS_P1;SDS_P2;PMS_P1;PMS_P2;Temp;Humidity;BMP_temperature;BMP_pressure;BME280_temperature;BME280_humidity;BME280_pressure;Samples;Min_cycle;Max_cycle;Signal;HPM_P1;HPM_P2
2021/07/27 00:04:24;;;;;;;2.77;1.77;;;;;;;;;;10427164;28;20069;-87
2021/07/27 00:09:25;;;;;;;5.00;2.13;;;;;;;;;;10402361;28;20038;-87
2021/07/27 00:14:25;;;;;;;2.43;1.90;;;;;;;;;;10436179;28;20436;-86
2021/07/27 00:19:25;;;;;;;3.03;2.00;;;;;;;;;;10423065;28;20113;-87
2021/07/27 00:24:26;;;;;;;2.73;1.80;;;;;;;;;;10422608;28;20510;-87
2021/07/27 00:29:27;;;;;;;2.22;1.73;;;;;;;;;;10412770;28;20041;-87
2021/07/27 00:34:27;;;;;;;3.30;1.90;;;;;;;;;;10419430;28;20033;-87
2021/07/27 00:39:28;;;;;;;4.97;2.30;;;;;;;;;;10421085;28;20038;-86
2021/07/27 00:44:28;;;;;;;2.17;1.70;;;;;;;;;;10423290;28;20160;-87
2021/07/27 00:49:29;;;;;;;2.25;1.88;;;;;;;;;;10422892;28;20932;-87
2021/07/27 00:54:30;;;;;;;3.00;2.03;;;;;;;;;;10425093;28;20057;-85
2021/07/27 00:59:30;;;;;;;3.63;1.73;;;;;;;;;;10428592;28;20049;-86
2021/07/27 01:04:31;;;;;;;3.20;1.83;;;;;;;;;;10421548;28;20033;-86
2021/07/27 01:09:31;;;;;;;2.47;1.60;;;;;;;;;;10414071;28;20092;-86
2021/07/27 01:14:31;;;;;;;2.42;1.88;;;;;;;;;;10389627;28;20431;-87
2021/07/27 01:19:50;;;;;;;2.97;1.73;;;;;;;;;;10426262;28;20124;-87
2021/07/27 01:40:58;;;;;;;1.75;1.60;;;;;;;;;;10410479;28;20025;-86
2021/07/27 01:45:59;;;;;;;2.97;1.52;;;;;;;;;;10405749;28;20085;-86
2021/07/27 01:50:59;;;;;;;1.92;1.60;;;;;;;;;;10419156;28;20025;-86
2021/07/27 01:56:00;;;;;;;2.27;1.77;;;;;;;;;;10432893;28;20071;-84
2021/07/27 02:01:00;;;;;;;2.27;1.60;;;;;;;;;;10416823;28;20076;-85
2021/07/27 02:06:00;;;;;;;3.47;1.67;;;;;;;;;;10432360;28;20488;-85
2021/07/27 02:11:06;;;;;;;2.30;1.60;;;;;;;;;;10418881;28;20476;-85
2021/07/27 02:16:06;;;;;;;2.20;1.50;;;;;;;;;;10404861;28;20517;-86
2021/07/27 02:21:07;;;;;;;4.20;1.63;;;;;;;;;;10415067;28;20033;-87
2021/07/27 02:26:08;;;;;;;2.33;1.47;;;;;;;;;;10418241;28;20040;-87
2021/07/27 02:31:14;;;;;;;2.03;1.60;;;;;;;;;;10413421;28;20818;-86
2021/07/27 02:36:14;;;;;;;2.10;1.83;;;;;;;;;;10413381;28;20071;-87
2021/07/27 02:41:20;;;;;;;1.70;1.50;;;;;;;;;;10401710;28;20064;-87
2021/07/27 02:46:21;;;;;;;1.52;1.27;;;;;;;;;;10407011;28;20025;-86
2021/07/27 02:51:21;;;;;;;1.73;1.50;;;;;;;;;;10393483;28;20044;-86
2021/07/27 02:56:22;;;;;;;1.60;1.50;;;;;;;;;;10430351;28;20026;-86
2021/07/27 03:01:22;;;;;;;1.55;1.45;;;;;;;;;;10413118;28;20496;-87
2021/07/27 03:06:23;;;;;;;2.60;1.87;;;;;;;;;;10403116;28;20037;-85
2021/07/27 03:11:24;;;;;;;2.95;1.55;;;;;;;;;;10415794;28;20036;-85
2021/07/27 03:16:25;;;;;;;8.02;1.60;;;;;;;;;;10404263;28;20032;-85
2021/07/27 03:21:26;;;;;;;1.50;1.40;;;;;;;;;;10396567;28;20033;-85
2021/07/27 03:26:27;;;;;;;1.30;1.20;;;;;;;;;;10415774;28;20033;-84
2021/07/27 03:31:30;;;;;;;2.13;1.50;;;;;;;;;;10415778;28;20036;-84
2021/07/27 03:36:30;;;;;;;1.50;1.40;;;;;;;;;;10415927;28;20443;-84
2021/07/27 03:41:31;;;;;;;2.15;1.60;;;;;;;;;;10388095;28;20391;-85
2021/07/27 03:46:32;;;;;;;1.50;1.40;;;;;;;;;;10422825;28;20415;-85
2021/07/27 03:51:33;;;;;;;1.50;1.40;;;;;;;;;;10446597;23;20054;-85
2021/07/27 03:56:34;;;;;;;2.90;1.60;;;;;;;;;;10373701;28;20026;-85
2021/07/27 04:01:34;;;;;;;1.23;1.10;;;;;;;;;;10373048;28;20065;-85
2021/07/27 04:06:35;;;;;;;1.50;1.40;;;;;;;;;;10374292;28;20026;-86
2021/07/27 04:11:35;;;;;;;2.93;1.50;;;;;;;;;;10370201;28;20498;-85
2021/07/27 04:16:42;;;;;;;1.83;1.40;;;;;;;;;;10373401;28;20037;-85
2021/07/27 04:21:43;;;;;;;3.00;1.42;;;;;;;;;;10368610;28;20099;-85
2021/07/27 04:26:46;;;;;;;1.60;1.23;;;;;;;;;;10373813;28;20373;-84
2021/07/27 04:31:50;;;;;;;1.42;1.30;;;;;;;;;;10371708;28;20119;-86
2021/07/27 04:36:53;;;;;;;1.83;1.50;;;;;;;;;;10361908;28;20029;-85
2021/07/27 04:41:53;;;;;;;1.20;1.10;;;;;;;;;;10373220;28;20096;-85
2021/07/27 04:46:54;;;;;;;1.30;1.20;;;;;;;;;;10373131;28;20080;-85
2021/07/27 04:51:57;;;;;;;1.70;1.20;;;;;;;;;;10372416;28;20050;-86
2021/07/27 04:56:58;;;;;;;1.48;1.38;;;;;;;;;;10375359;28;20449;-87
2021/07/27 05:01:58;;;;;;;2.73;1.33;;;;;;;;;;10379915;28;20034;-87
2021/07/27 05:06:59;;;;;;;1.33;1.20;;;;;;;;;;10380177;28;20053;-86
2021/07/27 05:11:59;;;;;;;1.40;1.30;;;;;;;;;;10368872;28;20425;-87
2021/07/27 05:17:10;;;;;;;0.90;0.90;;;;;;;;;;10379782;28;20369;-88
2021/07/27 05:22:10;;;;;;;1.30;1.20;;;;;;;;;;10361306;28;20457;-79
2021/07/27 05:27:11;;;;;;;1.30;1.20;;;;;;;;;;10372142;28;20385;-83
2021/07/27 05:32:11;;;;;;;1.43;1.33;;;;;;;;;;10378279;28;20038;-84
2021/07/27 05:37:12;;;;;;;1.43;1.30;;;;;;;;;;10378921;28;20958;-83
2021/07/27 05:42:12;;;;;;;1.65;1.40;;;;;;;;;;10378729;28;20033;-85
2021/07/27 05:47:13;;;;;;;2.97;1.20;;;;;;;;;;10379290;28;20025;-83
2021/07/27 05:52:13;;;;;;;1.30;1.20;;;;;;;;;;10374824;28;20050;-85
2021/07/27 05:57:15;;;;;;;1.80;1.30;;;;;;;;;;10379078;28;20463;-85
2021/07/27 06:02:19;;;;;;;1.40;1.30;;;;;;;;;;10363672;28;20052;-88
2021/07/27 06:07:20;;;;;;;3.72;1.30;;;;;;;;;;10376508;28;20034;-87
2021/07/27 06:12:20;;;;;;;1.57;1.30;;;;;;;;;;10376823;28;20389;-90
2021/07/27 06:17:20;;;;;;;1.20;1.10;;;;;;;;;;10376007;28;20029;-92
2021/07/27 06:22:21;;;;;;;1.40;1.30;;;;;;;;;;10376167;28;20818;-91
2021/07/27 06:27:21;;;;;;;1.27;1.17;;;;;;;;;;10376290;28;20026;-93
2021/07/27 06:32:22;;;;;;;3.97;0.95;;;;;;;;;;10376810;28;20040;-95
2021/07/27 06:37:22;;;;;;;1.40;1.30;;;;;;;;;;10377406;28;20033;-94
2021/07/27 06:42:22;;;;;;;1.57;1.40;;;;;;;;;;10380500;28;20461;-95
2021/07/27 06:47:23;;;;;;;1.83;1.20;;;;;;;;;;10375610;28;20119;-94
2021/07/27 06:52:23;;;;;;;2.13;1.17;;;;;;;;;;10380127;28;20049;-95
2021/07/27 06:57:24;;;;;;;1.53;1.10;;;;;;;;;;10374958;28;20088;-95
2021/07/27 07:02:27;;;;;;;2.10;1.33;;;;;;;;;;10376946;28;20030;-95
2021/07/27 07:07:27;;;;;;;1.35;1.20;;;;;;;;;;10376427;28;20538;-93
2021/07/27 07:12:29;;;;;;;1.70;1.20;;;;;;;;;;10376547;28;20108;-93
2021/07/27 07:17:30;;;;;;;1.73;1.33;;;;;;;;;;10373841;28;20456;-89
2021/07/27 07:22:30;;;;;;;2.83;1.60;;;;;;;;;;10374454;28;20456;-89
2021/07/27 07:27:31;;;;;;;1.45;1.35;;;;;;;;;;10375393;28;20496;-88
2021/07/27 07:32:31;;;;;;;1.65;1.20;;;;;;;;;;10355602;28;20052;-89
2021/07/27 07:37:31;;;;;;;1.70;1.30;;;;;;;;;;10367855;28;20058;-88
2021/07/27 07:42:32;;;;;;;1.60;1.30;;;;;;;;;;10373999;28;20868;-88
2021/07/27 07:47:32;;;;;;;1.47;1.37;;;;;;;;;;10373033;28;20538;-88
2021/07/27 07:52:33;;;;;;;1.40;1.30;;;;;;;;;;10372392;28;20046;-90
2021/07/27 07:57:34;;;;;;;1.43;1.33;;;;;;;;;;10373890;28;20057;-89
2021/07/27 08:02:35;;;;;;;3.55;1.50;;;;;;;;;;10373882;28;20467;-85
2021/07/27 08:07:35;;;;;;;12.03;3.33;;;;;;;;;;10364109;28;20026;-88
2021/07/27 08:12:36;;;;;;;8.17;3.50;;;;;;;;;;10372900;28;20475;-87
2021/07/27 08:17:36;;;;;;;10.57;4.23;;;;;;;;;;10365268;28;20077;-87
2021/07/27 08:22:41;;;;;;;10.32;3.90;;;;;;;;;;10373071;28;20040;-87
2021/07/27 08:27:42;;;;;;;10.13;4.32;;;;;;;;;;10372791;28;20030;-86
2021/07/27 08:32:52;;;;;;;10.23;4.45;;;;;;;;;;10375361;28;20159;-86
2021/07/27 08:37:53;;;;;;;9.07;4.20;;;;;;;;;;10376753;28;20469;-85
2021/07/27 08:42:53;;;;;;;14.57;4.30;;;;;;;;;;10381651;28;20041;-85
2021/07/27 08:47:54;;;;;;;12.27;4.93;;;;;;;;;;10376945;28;20455;-85
2021/07/27 08:52:55;;;;;;;7.45;4.22;;;;;;;;;;10370602;28;20180;-86
2021/07/27 08:57:59;;;;;;;8.95;3.63;;;;;;;;;;10373254;28;20109;-85
2021/07/27 09:03:07;;;;;;;8.48;3.83;;;;;;;;;;10375184;28;20358;-85
2021/07/27 09:08:09;;;;;;;9.05;4.60;;;;;;;;;;10371534;28;20049;-84
2021/07/27 09:13:11;;;;;;;6.72;4.20;;;;;;;;;;10378635;28;20116;-84
2021/07/27 09:18:16;;;;;;;8.68;4.13;;;;;;;;;;10360489;28;20025;-84
2021/07/27 09:23:17;;;;;;;9.13;4.15;;;;;;;;;;10377991;28;20033;-84
2021/07/27 09:28:18;;;;;;;8.13;3.90;;;;;;;;;;10356540;28;20121;-84
2021/07/27 09:33:27;;;;;;;9.45;4.43;;;;;;;;;;10366067;28;20038;-89
2021/07/27 09:38:34;;;;;;;7.80;4.05;;;;;;;;;;10354980;28;20054;-89
2021/07/27 09:43:34;;;;;;;9.27;4.35;;;;;;;;;;10363322;28;20037;-88
2021/07/27 09:48:39;;;;;;;5.93;4.20;;;;;;;;;;10369377;28;20040;-88
2021/07/27 09:53:42;;;;;;;10.45;4.35;;;;;;;;;;10370265;28;20054;-88
2021/07/27 09:58:42;;;;;;;10.55;4.25;;;;;;;;;;10362958;28;20389;-89
2021/07/27 10:03:59;;;;;;;5.90;3.95;;;;;;;;;;10382858;28;20029;-89
2021/07/27 10:09:01;;;;;;;6.43;4.30;;;;;;;;;;10372330;28;20095;-88
2021/07/27 10:14:13;;;;;;;6.60;3.70;;;;;;;;;;10374373;28;20038;-89
2021/07/27 10:19:20;;;;;;;9.13;4.07;;;;;;;;;;10374342;28;20096;-89
2021/07/27 10:24:22;;;;;;;7.33;4.17;;;;;;;;;;10379298;28;20480;-89
2021/07/27 10:29:30;;;;;;;8.68;4.28;;;;;;;;;;10377110;28;20040;-92
2021/07/27 10:34:35;;;;;;;8.77;4.23;;;;;;;;;;10372434;28;20036;-89
2021/07/27 10:39:48;;;;;;;8.38;4.13;;;;;;;;;;10361200;28;20347;-90
2021/07/27 10:44:49;;;;;;;9.05;4.07;;;;;;;;;;10367794;28;20425;-89
2021/07/27 10:50:05;;;;;;;10.38;4.40;;;;;;;;;;10362271;28;20125;-90
2021/07/27 10:55:07;;;;;;;5.68;3.60;;;;;;;;;;10333250;28;20037;-90
2021/07/27 11:00:08;;;;;;;6.22;4.00;;;;;;;;;;10332524;28;20034;-90
2021/07/27 11:05:09;;;;;;;8.13;4.13;;;;;;;;;;10329091;28;20463;-82
2021/07/27 11:10:10;;;;;;;13.75;4.57;;;;;;;;;;10324089;28;20038;-82
2021/07/27 11:15:18;;;;;;;8.98;4.38;;;;;;;;;;10328074;28;20084;-79
2021/07/27 11:20:22;;;;;;;10.10;4.50;;;;;;;;;;10326694;28;20034;-80
2021/07/27 11:25:24;;;;;;;11.70;4.28;;;;;;;;;;10339151;28;20038;-82
2021/07/27 11:30:35;;;;;;;10.82;4.80;;;;;;;;;;10315662;28;20109;-84
2021/07/27 11:35:43;;;;;;;7.68;4.18;;;;;;;;;;10302174;28;20529;-84
2021/07/27 11:40:44;;;;;;;12.00;4.15;;;;;;;;;;10316744;28;20041;-85
2021/07/27 11:45:45;;;;;;;10.73;4.20;;;;;;;;;;10314558;28;20040;-86
2021/07/27 11:50:56;;;;;;;15.18;4.55;;;;;;;;;;10325518;28;20046;-84
2021/07/27 11:55:58;;;;;;;10.10;4.10;;;;;;;;;;10360156;28;20038;-85
2021/07/27 12:00:59;;;;;;;13.88;3.97;;;;;;;;;;10359273;28;20560;-86
2021/07/27 12:06:11;;;;;;;8.85;4.38;;;;;;;;;;10368175;28;20058;-86
2021/07/27 12:11:11;;;;;;;8.38;4.13;;;;;;;;;;10367997;28;20034;-86
2021/07/27 12:16:12;;;;;;;10.00;4.28;;;;;;;;;;10368963;28;20034;-86
2021/07/27 12:21:12;;;;;;;8.07;3.88;;;;;;;;;;10372678;28;20527;-85
2021/07/27 12:26:13;;;;;;;7.20;3.58;;;;;;;;;;10377643;28;20112;-86
2021/07/27 12:31:14;;;;;;;17.00;4.00;;;;;;;;;;10372356;28;20030;-84
2021/07/27 12:36:15;;;;;;;14.65;4.18;;;;;;;;;;10370158;28;20496;-85
2021/07/27 12:41:16;;;;;;;6.47;4.15;;;;;;;;;;10375744;28;20121;-84
2021/07/27 12:46:19;;;;;;;9.32;3.47;;;;;;;;;;10367823;28;20038;-84
2021/07/27 12:51:20;;;;;;;5.20;3.00;;;;;;;;;;10349048;28;20085;-85
2021/07/27 12:56:21;;;;;;;6.57;3.38;;;;;;;;;;10334124;28;20061;-84
2021/07/27 13:01:21;;;;;;;13.65;3.50;;;;;;;;;;10338389;28;20049;-84
2021/07/27 13:06:22;;;;;;;15.20;3.47;;;;;;;;;;10336557;28;20042;-84
2021/07/27 13:11:22;;;;;;;7.80;3.33;;;;;;;;;;10310881;28;20036;-84
2021/07/27 13:16:23;;;;;;;10.13;3.47;;;;;;;;;;10335753;28;20097;-85
2021/07/27 13:21:24;;;;;;;10.77;3.53;;;;;;;;;;10336690;28;20042;-82
2021/07/27 13:26:24;;;;;;;6.13;3.20;;;;;;;;;;10337615;28;20043;-82
2021/07/27 13:31:25;;;;;;;7.95;3.20;;;;;;;;;;10336877;28;20034;-83
2021/07/27 13:36:25;;;;;;;6.47;2.97;;;;;;;;;;10319324;28;20121;-84
2021/07/27 13:41:25;;;;;;;8.20;3.70;;;;;;;;;;10336597;28;20452;-84
2021/07/27 13:46:26;;;;;;;7.00;2.97;;;;;;;;;;10338336;28;20058;-84
2021/07/27 13:51:26;;;;;;;9.80;3.80;;;;;;;;;;10336191;28;20505;-84
2021/07/27 13:56:26;;;;;;;7.20;2.88;;;;;;;;;;10337028;28;20038;-84
2021/07/27 14:01:27;;;;;;;6.70;3.27;;;;;;;;;;10337416;28;20113;-85
2021/07/27 14:06:27;;;;;;;8.90;3.65;;;;;;;;;;10335410;28;21035;-82
2021/07/27 14:11:28;;;;;;;6.83;3.30;;;;;;;;;;10336417;28;20058;-82
2021/07/27 14:16:28;;;;;;;18.07;3.47;;;;;;;;;;10337041;28;20116;-93
2021/07/27 14:21:29;;;;;;;8.23;3.27;;;;;;;;;;10317863;28;20045;-87
2021/07/27 14:26:29;;;;;;;8.95;3.67;;;;;;;;;;10336744;28;20033;-88
2021/07/27 14:31:30;;;;;;;10.98;3.83;;;;;;;;;;10334723;28;20105;-86
2021/07/27 14:36:30;;;;;;;7.43;3.20;;;;;;;;;;10334826;28;20057;-85
2021/07/27 14:41:31;;;;;;;10.20;3.78;;;;;;;;;;10334038;28;20045;-87
2021/07/27 14:46:32;;;;;;;10.55;3.63;;;;;;;;;;10335249;28;20069;-86
2021/07/27 14:51:33;;;;;;;10.57;3.70;;;;;;;;;;10334646;28;20058;-87
2021/07/27 14:56:35;;;;;;;7.57;3.65;;;;;;;;;;10333950;28;20069;-86
2021/07/27 15:01:36;;;;;;;7.43;3.10;;;;;;;;;;10334014;28;20049;-87
2021/07/27 15:06:36;;;;;;;7.70;3.88;;;;;;;;;;10333636;28;20361;-86
2021/07/27 15:11:36;;;;;;;8.67;3.50;;;;;;;;;;10330056;28;20030;-86
2021/07/27 15:16:38;;;;;;;5.65;3.25;;;;;;;;;;10333500;28;20149;-86
2021/07/27 15:21:38;;;;;;;4.65;2.97;;;;;;;;;;10332378;28;20038;-87
2021/07/27 15:26:39;;;;;;;5.73;3.03;;;;;;;;;;10325857;28;20037;-87
2021/07/27 15:31:40;;;;;;;5.07;3.08;;;;;;;;;;10332323;28;20100;-87
2021/07/27 15:36:40;;;;;;;6.93;3.20;;;;;;;;;;10333184;28;20100;-88
2021/07/27 15:41:40;;;;;;;5.57;3.30;;;;;;;;;;10331263;28;20440;-91
2021/07/27 15:46:43;;;;;;;5.53;3.10;;;;;;;;;;10332895;28;20974;-89
2021/07/27 15:51:44;;;;;;;6.75;2.80;;;;;;;;;;10402858;23;20080;-91
2021/07/27 16:20:18;;;;;;;7.10;3.22;;;;;;;;;;10524912;27;20643;-92
2021/07/27 16:25:18;;;;;;;10.55;3.20;;;;;;;;;;10481973;28;20037;-92
2021/07/27 16:30:20;;;;;;;13.50;3.33;;;;;;;;;;10489219;28;20028;-92
2021/07/27 16:35:20;;;;;;;19.38;3.63;;;;;;;;;;10471140;28;20028;-92
2021/07/27 16:40:21;;;;;;;4.60;2.33;;;;;;;;;;10471970;28;20051;-88
2021/07/27 16:45:21;;;;;;;7.25;2.58;;;;;;;;;;10476547;28;20025;-90
2021/07/27 16:50:22;;;;;;;24.83;4.57;;;;;;;;;;10490536;28;20039;-90
2021/07/27 16:55:22;;;;;;;7.03;3.50;;;;;;;;;;10519124;28;20032;-93
2021/07/27 17:00:23;;;;;;;10.95;3.60;;;;;;;;;;10496874;28;20029;-89
2021/07/27 17:05:23;;;;;;;12.57;4.32;;;;;;;;;;10488323;28;20452;-89
2021/07/27 17:10:24;;;;;;;13.33;3.93;;;;;;;;;;10486881;28;20025;-81
2021/07/27 17:15:25;;;;;;;6.00;2.95;;;;;;;;;;10488342;28;21015;-81
2021/07/27 17:20:25;;;;;;;8.77;3.10;;;;;;;;;;10465369;28;20040;-80
2021/07/27 17:25:25;;;;;;;13.47;3.27;;;;;;;;;;10461079;28;20041;-90
2021/07/27 17:30:30;;;;;;;10.70;3.33;;;;;;;;;;10463812;28;20112;-90
2021/07/27 17:35:31;;;;;;;18.67;3.67;;;;;;;;;;10460210;28;20029;-92
2021/07/27 17:40:31;;;;;;;8.83;3.13;;;;;;;;;;10459854;28;20391;-90
2021/07/27 17:45:32;;;;;;;8.37;3.03;;;;;;;;;;10458522;28;20477;-90
2021/07/27 17:50:32;;;;;;;9.32;3.17;;;;;;;;;;10461482;28;20090;-91
2021/07/27 17:55:33;;;;;;;9.13;3.23;;;;;;;;;;10466201;28;20125;-91
2021/07/27 18:00:33;;;;;;;10.30;3.30;;;;;;;;;;10434802;28;20999;-89
2021/07/27 18:05:33;;;;;;;8.03;2.60;;;;;;;;;;10460254;28;20044;-88
2021/07/27 18:10:34;;;;;;;9.45;3.15;;;;;;;;;;10460327;28;20072;-88
2021/07/27 18:15:35;;;;;;;10.23;3.35;;;;;;;;;;10464346;28;20349;-88
2021/07/27 18:20:37;;;;;;;8.40;3.38;;;;;;;;;;10454750;28;20033;-88
2021/07/27 18:25:39;;;;;;;6.88;3.20;;;;;;;;;;10471748;28;20452;-88
2021/07/27 18:30:40;;;;;;;8.57;3.13;;;;;;;;;;10466353;28;20025;-88
2021/07/27 18:35:40;;;;;;;6.97;3.00;;;;;;;;;;10486197;28;20040;-88
2021/07/27 18:40:41;;;;;;;6.23;2.90;;;;;;;;;;10483842;28;20078;-88
2021/07/27 18:45:41;;;;;;;9.95;3.10;;;;;;;;;;10473625;28;20470;-88
2021/07/27 18:50:41;;;;;;;8.83;3.47;;;;;;;;;;10472071;28;20029;-88
2021/07/27 18:55:42;;;;;;;10.10;4.13;;;;;;;;;;10475982;28;20778;-88
2021/07/27 19:00:43;;;;;;;7.85;3.50;;;;;;;;;;10489224;28;20512;-87
2021/07/27 19:05:43;;;;;;;8.13;3.67;;;;;;;;;;10469112;28;20119;-87
2021/07/27 19:10:44;;;;;;;7.27;3.30;;;;;;;;;;10457023;28;20032;-88
2021/07/27 19:15:44;;;;;;;7.05;3.05;;;;;;;;;;10458536;28;20490;-87
2021/07/27 19:20:47;;;;;;;9.53;3.43;;;;;;;;;;10459175;28;20028;-90
2021/07/27 19:25:48;;;;;;;7.07;3.50;;;;;;;;;;10460994;28;20124;-90
2021/07/27 19:30:49;;;;;;;11.03;3.60;;;;;;;;;;10438040;28;20555;-90
2021/07/27 19:35:50;;;;;;;5.32;3.00;;;;;;;;;;10454199;28;21007;-90
2021/07/27 19:40:51;;;;;;;6.68;3.00;;;;;;;;;;10433846;28;20033;-90
2021/07/27 19:46:13;;;;;;;7.97;3.15;;;;;;;;;;10469610;28;20112;-88
2021/07/27 19:51:13;;;;;;;6.68;2.70;;;;;;;;;;10473537;28;20504;-88
2021/07/27 19:56:14;;;;;;;8.17;2.53;;;;;;;;;;10472395;28;20127;-85
2021/07/27 20:01:14;;;;;;;8.07;2.87;;;;;;;;;;10475817;28;20029;-84
2021/07/27 20:06:14;;;;;;;8.17;2.50;;;;;;;;;;10470813;28;20384;-85
2021/07/27 20:11:15;;;;;;;4.67;2.60;;;;;;;;;;10466837;28;20116;-85
2021/07/27 20:16:16;;;;;;;6.20;2.50;;;;;;;;;;10456237;28;20048;-85
2021/07/27 20:21:17;;;;;;;7.30;2.85;;;;;;;;;;10468935;28;20056;-85
2021/07/27 20:26:17;;;;;;;7.55;2.80;;;;;;;;;;10462077;28;20052;-85
2021/07/27 20:31:18;;;;;;;5.00;2.50;;;;;;;;;;10460265;28;20137;-85
2021/07/27 20:36:18;;;;;;;4.32;2.40;;;;;;;;;;10463806;28;20032;-85
2021/07/27 20:41:18;;;;;;;3.87;2.40;;;;;;;;;;10453801;28;20029;-85
2021/07/27 20:46:19;;;;;;;4.60;2.30;;;;;;;;;;10452037;28;20384;-85
2021/07/27 20:51:19;;;;;;;3.43;2.03;;;;;;;;;;10455237;28;20025;-86
2021/07/27 20:56:20;;;;;;;4.37;2.37;;;;;;;;;;10460184;28;20509;-86
2021/07/27 21:01:20;;;;;;;4.60;2.43;;;;;;;;;;10460929;28;20458;-86
2021/07/27 21:06:21;;;;;;;4.65;2.40;;;;;;;;;;10467661;28;20032;-81
2021/07/27 21:11:21;;;;;;;4.27;2.37;;;;;;;;;;10481213;28;20056;-85
2021/07/27 21:16:22;;;;;;;6.60;2.20;;;;;;;;;;10468252;28;20127;-87
2021/07/27 21:21:22;;;;;;;5.22;2.38;;;;;;;;;;10471196;28;20025;-86
2021/07/27 21:26:23;;;;;;;4.30;2.28;;;;;;;;;;10470332;28;20250;-87
2021/07/27 21:31:23;;;;;;;9.27;2.55;;;;;;;;;;10467627;28;20499;-86
2021/07/27 21:36:24;;;;;;;3.85;2.33;;;;;;;;;;10461009;28;20365;-86
2021/07/27 21:41:24;;;;;;;4.97;2.73;;;;;;;;;;10460135;28;20615;-86
2021/07/27 21:46:24;;;;;;;4.37;2.03;;;;;;;;;;10460089;28;20029;-87
2021/07/27 21:51:25;;;;;;;5.55;2.60;;;;;;;;;;10458807;28;20028;-91
2021/07/27 21:56:25;;;;;;;6.60;2.60;;;;;;;;;;10454191;28;20037;-89
2021/07/27 22:01:26;;;;;;;5.63;2.27;;;;;;;;;;10457217;28;20029;-90
2021/07/27 22:06:26;;;;;;;6.07;2.30;;;;;;;;;;10456036;28;20129;-89
2021/07/27 22:11:27;;;;;;;6.70;2.13;;;;;;;;;;10458163;28;20048;-87
2021/07/27 22:16:28;;;;;;;10.55;3.28;;;;;;;;;;10459514;28;20099;-80
2021/07/27 22:21:28;;;;;;;9.37;3.80;;;;;;;;;;10458337;28;20049;-84
2021/07/27 22:26:28;;;;;;;8.23;2.90;;;;;;;;;;10454394;28;20020;-82
2021/07/27 22:31:30;;;;;;;12.50;2.57;;;;;;;;;;10458180;28;20048;-83
2021/07/27 22:36:30;;;;;;;9.23;3.05;;;;;;;;;;10458686;28;20040;-84
2021/07/27 22:41:31;;;;;;;7.30;2.90;;;;;;;;;;10472962;28;20052;-83
2021/07/27 22:46:31;;;;;;;7.80;2.73;;;;;;;;;;10459200;28;20029;-83
2021/07/27 22:51:32;;;;;;;11.40;3.07;;;;;;;;;;10475487;28;20490;-82
2021/07/27 22:56:32;;;;;;;9.83;2.67;;;;;;;;;;10462557;28;20074;-83
2021/07/27 23:01:32;;;;;;;18.43;3.40;;;;;;;;;;10447348;28;20044;-83
2021/07/27 23:06:33;;;;;;;7.75;2.60;;;;;;;;;;10457937;28;20040;-83
2021/07/27 23:11:33;;;;;;;9.27;2.07;;;;;;;;;;10456910;28;20048;-84
2021/07/27 23:16:34;;;;;;;7.17;2.83;;;;;;;;;;10459267;28;20052;-83
2021/07/27 23:21:34;;;;;;;4.47;2.40;;;;;;;;;;10469368;28;20499;-83
2021/07/27 23:26:37;;;;;;;6.50;2.27;;;;;;;;;;10471582;28;20975;-83
2021/07/27 23:31:37;;;;;;;12.13;2.45;;;;;;;;;;10469846;28;20469;-83
2021/07/27 23:36:38;;;;;;;6.77;2.40;;;;;;;;;;10443351;28;20440;-82
2021/07/27 23:41:39;;;;;;;5.72;2.10;;;;;;;;;;10455358;28;20473;-83
2021/07/27 23:46:39;;;;;;;6.25;2.35;;;;;;;;;;10482664;28;20479;-82
2021/07/27 23:51:40;;;;;;;4.80;1.97;;;;;;;;;;10497511;28;20025;-82
2021/07/27 23:56:40;;;;;;;5.80;1.87;;;;;;;;;;10467625;28;20503;-82
